sensor_id;sensor_type;location;lat;lon;timestamp;temperature;humidity
67893;DHT22;54688;52.376;16.744;2023-07-29T00:01:29;16.1;84.9
67893;DHT22;54688;52.376;16.744;2023-07-29T00:04:31;16;84.7
67893;DHT22;54688;52.376;16.744;2023-07-29T00:07:33;16;84.9
67893;DHT22;54688;52.376;16.744;2023-07-29T00:10:36;15.9;84.7
67893;DHT22;54688;52.376;16.744;2023-07-29T00:13:38;15.9;84.6
67893;DHT22;54688;52.376;16.744;2023-07-29T00:16:40;15.8;84.4
67893;DHT22;54688;52.376;16.744;2023-07-29T00:19:42;15.7;84.3
67893;DHT22;54688;52.376;16.744;2023-07-29T00:22:43;15.7;84.3
67893;DHT22;54688;52.376;16.744;2023-07-29T00:25:46;15.6;84.2
67893;DHT22;54688;52.376;16.744;2023-07-29T00:28:48;15.6;84.2
67893;DHT22;54688;52.376;16.744;2023-07-29T00:31:50;15.5;84.3
67893;DHT22;54688;52.376;16.744;2023-07-29T00:34:51;15.5;84.2
67893;DHT22;54688;52.376;16.744;2023-07-29T00:37:53;15.4;83.9
67893;DHT22;54688;52.376;16.744;2023-07-29T00:40:56;15.3;84
67893;DHT22;54688;52.376;16.744;2023-07-29T00:43:58;15.2;84.3
67893;DHT22;54688;52.376;16.744;2023-07-29T00:47:00;15.2;84.1
67893;DHT22;54688;52.376;16.744;2023-07-29T00:50:05;15.1;84.4
67893;DHT22;54688;52.376;16.744;2023-07-29T00:53:08;15.1;84.7
67893;DHT22;54688;52.376;16.744;2023-07-29T00:56:09;15.1;84.9
67893;DHT22;54688;52.376;16.744;2023-07-29T00:59:11;15;84.7
67893;DHT22;54688;52.376;16.744;2023-07-29T01:02:14;14.9;84.5
67893;DHT22;54688;52.376;16.744;2023-07-29T01:05:17;14.9;84.8
67893;DHT22;54688;52.376;16.744;2023-07-29T01:08:20;14.9;84.7
67893;DHT22;54688;52.376;16.744;2023-07-29T01:11:32;14.8;84.7
67893;DHT22;54688;52.376;16.744;2023-07-29T01:14:39;14.8;84.6
67893;DHT22;54688;52.376;16.744;2023-07-29T01:17:49;14.7;84.5
67893;DHT22;54688;52.376;16.744;2023-07-29T01:20:58;14.7;84.5
67893;DHT22;54688;52.376;16.744;2023-07-29T01:24:01;14.6;84.7
67893;DHT22;54688;52.376;16.744;2023-07-29T01:27:04;14.6;85
67893;DHT22;54688;52.376;16.744;2023-07-29T01:30:07;14.6;85.3
67893;DHT22;54688;52.376;16.744;2023-07-29T01:33:10;14.6;85.2
67893;DHT22;54688;52.376;16.744;2023-07-29T01:36:18;14.5;85.3
67893;DHT22;54688;52.376;16.744;2023-07-29T01:39:24;14.5;85.5
67893;DHT22;54688;52.376;16.744;2023-07-29T01:42:29;14.5;85.7
67893;DHT22;54688;52.376;16.744;2023-07-29T01:45:32;14.4;85.5
67893;DHT22;54688;52.376;16.744;2023-07-29T01:48:34;14.4;85.7
67893;DHT22;54688;52.376;16.744;2023-07-29T01:51:35;14.4;85.6
67893;DHT22;54688;52.376;16.744;2023-07-29T01:54:37;14.3;85.6
67893;DHT22;54688;52.376;16.744;2023-07-29T01:57:39;14.4;85.8
67893;DHT22;54688;52.376;16.744;2023-07-29T02:00:41;14.3;85.7
67893;DHT22;54688;52.376;16.744;2023-07-29T02:03:42;14.3;85.9
67893;DHT22;54688;52.376;16.744;2023-07-29T02:06:44;14.3;86
67893;DHT22;54688;52.376;16.744;2023-07-29T02:09:45;14.3;85.9
67893;DHT22;54688;52.376;16.744;2023-07-29T02:12:47;14.2;86
67893;DHT22;54688;52.376;16.744;2023-07-29T02:15:49;14.2;86
67893;DHT22;54688;52.376;16.744;2023-07-29T02:18:51;14.2;86.2
67893;DHT22;54688;52.376;16.744;2023-07-29T02:21:53;14.2;86.3
67893;DHT22;54688;52.376;16.744;2023-07-29T02:24:55;14.2;86.3
67893;DHT22;54688;52.376;16.744;2023-07-29T02:27:56;14.2;86.5
67893;DHT22;54688;52.376;16.744;2023-07-29T02:31:14;14.2;86.7
67893;DHT22;54688;52.376;16.744;2023-07-29T02:34:17;14.2;86.7
67893;DHT22;54688;52.376;16.744;2023-07-29T02:37:19;14.2;86.8
67893;DHT22;54688;52.376;16.744;2023-07-29T02:40:22;14.2;86.9
67893;DHT22;54688;52.376;16.744;2023-07-29T02:43:23;14.2;86.9
67893;DHT22;54688;52.376;16.744;2023-07-29T02:46:25;14.2;87
67893;DHT22;54688;52.376;16.744;2023-07-29T02:49:27;14.2;87
67893;DHT22;54688;52.376;16.744;2023-07-29T02:52:28;14.2;87
67893;DHT22;54688;52.376;16.744;2023-07-29T02:55:30;14.2;87.5
67893;DHT22;54688;52.376;16.744;2023-07-29T02:58:32;14.2;87.1
67893;DHT22;54688;52.376;16.744;2023-07-29T03:01:34;14.2;87
67893;DHT22;54688;52.376;16.744;2023-07-29T03:04:37;14.2;87.1
67893;DHT22;54688;52.376;16.744;2023-07-29T03:07:38;14.2;87.2
67893;DHT22;54688;52.376;16.744;2023-07-29T03:10:41;14.2;87.1
67893;DHT22;54688;52.376;16.744;2023-07-29T03:13:43;14.2;87
67893;DHT22;54688;52.376;16.744;2023-07-29T03:16:45;14.1;86.9
67893;DHT22;54688;52.376;16.744;2023-07-29T03:19:47;14.2;87.1
67893;DHT22;54688;52.376;16.744;2023-07-29T03:22:49;14.2;87
67893;DHT22;54688;52.376;16.744;2023-07-29T03:25:51;14.1;86.9
67893;DHT22;54688;52.376;16.744;2023-07-29T03:28:53;14.1;87
67893;DHT22;54688;52.376;16.744;2023-07-29T03:31:55;14.1;87
67893;DHT22;54688;52.376;16.744;2023-07-29T03:34:57;14.2;87.2
67893;DHT22;54688;52.376;16.744;2023-07-29T03:37:59;14.2;87.4
67893;DHT22;54688;52.376;16.744;2023-07-29T03:41:01;14.3;87.6
67893;DHT22;54688;52.376;16.744;2023-07-29T03:44:02;14.3;87.6
67893;DHT22;54688;52.376;16.744;2023-07-29T03:47:05;14.3;87.6
67893;DHT22;54688;52.376;16.744;2023-07-29T03:50:07;14.4;88.6
67893;DHT22;54688;52.376;16.744;2023-07-29T03:53:10;14.4;87.8
67893;DHT22;54688;52.376;16.744;2023-07-29T03:56:11;14.5;87.8
67893;DHT22;54688;52.376;16.744;2023-07-29T03:59:13;14.5;87.8
67893;DHT22;54688;52.376;16.744;2023-07-29T04:02:15;14.6;87.8
67893;DHT22;54688;52.376;16.744;2023-07-29T04:05:17;14.6;87.8
67893;DHT22;54688;52.376;16.744;2023-07-29T04:08:19;14.7;87.9
67893;DHT22;54688;52.376;16.744;2023-07-29T04:11:22;14.7;87.9
67893;DHT22;54688;52.376;16.744;2023-07-29T04:14:24;14.7;87.9
67893;DHT22;54688;52.376;16.744;2023-07-29T04:17:26;14.8;87.9
67893;DHT22;54688;52.376;16.744;2023-07-29T04:20:28;14.8;87.7
67893;DHT22;54688;52.376;16.744;2023-07-29T04:23:30;14.9;87.8
67893;DHT22;54688;52.376;16.744;2023-07-29T04:26:33;14.9;87.8
67893;DHT22;54688;52.376;16.744;2023-07-29T04:29:35;14.9;87.8
67893;DHT22;54688;52.376;16.744;2023-07-29T04:32:37;15;88
67893;DHT22;54688;52.376;16.744;2023-07-29T04:35:40;15.1;88
67893;DHT22;54688;52.376;16.744;2023-07-29T04:38:41;15.1;88
67893;DHT22;54688;52.376;16.744;2023-07-29T04:41:43;15.2;88.1
67893;DHT22;54688;52.376;16.744;2023-07-29T04:44:45;15.2;88.1
67893;DHT22;54688;52.376;16.744;2023-07-29T04:47:46;15.3;88.1
67893;DHT22;54688;52.376;16.744;2023-07-29T04:50:49;15.4;88.3
67893;DHT22;54688;52.376;16.744;2023-07-29T04:53:51;15.4;88.2
67893;DHT22;54688;52.376;16.744;2023-07-29T04:56:53;15.5;88.3
67893;DHT22;54688;52.376;16.744;2023-07-29T04:59:56;15.6;88.6
67893;DHT22;54688;52.376;16.744;2023-07-29T05:02:57;15.7;88.7
67893;DHT22;54688;52.376;16.744;2023-07-29T05:06:00;15.8;88.7
67893;DHT22;54688;52.376;16.744;2023-07-29T05:09:12;15.9;88.9
67893;DHT22;54688;52.376;16.744;2023-07-29T05:12:14;16;88.9
67893;DHT22;54688;52.376;16.744;2023-07-29T05:15:16;16.1;88.8
67893;DHT22;54688;52.376;16.744;2023-07-29T05:18:17;16.2;88.9
67893;DHT22;54688;52.376;16.744;2023-07-29T05:21:20;16.3;88.9
67893;DHT22;54688;52.376;16.744;2023-07-29T05:24:22;16.4;88.8
67893;DHT22;54688;52.376;16.744;2023-07-29T05:27:24;16.5;88.7
67893;DHT22;54688;52.376;16.744;2023-07-29T05:30:26;16.6;88.4
67893;DHT22;54688;52.376;16.744;2023-07-29T05:33:28;16.7;88.2
67893;DHT22;54688;52.376;16.744;2023-07-29T05:36:30;16.8;87.9
67893;DHT22;54688;52.376;16.744;2023-07-29T05:39:31;16.8;88
67893;DHT22;54688;52.376;16.744;2023-07-29T05:42:33;16.9;88.1
67893;DHT22;54688;52.376;16.744;2023-07-29T05:45:35;17;88.1
67893;DHT22;54688;52.376;16.744;2023-07-29T05:48:37;17.1;88.2
67893;DHT22;54688;52.376;16.744;2023-07-29T05:51:39;17.2;87.5
67893;DHT22;54688;52.376;16.744;2023-07-29T05:54:42;17.3;87.8
67893;DHT22;54688;52.376;16.744;2023-07-29T05:57:44;17.4;87.8
67893;DHT22;54688;52.376;16.744;2023-07-29T06:00:46;17.5;87.9
67893;DHT22;54688;52.376;16.744;2023-07-29T06:03:47;17.7;87.4
67893;DHT22;54688;52.376;16.744;2023-07-29T06:06:50;17.7;87
67893;DHT22;54688;52.376;16.744;2023-07-29T06:09:52;17.8;86.8
67893;DHT22;54688;52.376;16.744;2023-07-29T06:15:53;18.1;87
67893;DHT22;54688;52.376;16.744;2023-07-29T06:18:56;18.2;87
67893;DHT22;54688;52.376;16.744;2023-07-29T06:21:59;18.3;86.3
67893;DHT22;54688;52.376;16.744;2023-07-29T07:53:22;19.7;74.4
67893;DHT22;54688;52.376;16.744;2023-07-29T07:56:24;19.7;75.2
67893;DHT22;54688;52.376;16.744;2023-07-29T07:59:26;19.8;76.4
67893;DHT22;54688;52.376;16.744;2023-07-29T08:01:08;19.9;72.8
67893;DHT22;54688;52.376;16.744;2023-07-29T08:04:11;19.8;73.5
67893;DHT22;54688;52.376;16.744;2023-07-29T08:07:15;19.9;73.5
67893;DHT22;54688;52.376;16.744;2023-07-29T08:10:16;20;71.6
67893;DHT22;54688;52.376;16.744;2023-07-29T08:13:18;20.1;71.2
67893;DHT22;54688;52.376;16.744;2023-07-29T08:16:19;20.3;70.3
67893;DHT22;54688;52.376;16.744;2023-07-29T08:19:21;20.5;69.5
67893;DHT22;54688;52.376;16.744;2023-07-29T08:22:23;20.6;69.3
67893;DHT22;54688;52.376;16.744;2023-07-29T08:25:25;20.7;68
67893;DHT22;54688;52.376;16.744;2023-07-29T08:28:28;20.8;67.5
67893;DHT22;54688;52.376;16.744;2023-07-29T08:31:30;20.8;66.8
67893;DHT22;54688;52.376;16.744;2023-07-29T08:34:32;20.9;66.9
67893;DHT22;54688;52.376;16.744;2023-07-29T08:37:33;21;66.3
67893;DHT22;54688;52.376;16.744;2023-07-29T08:40:35;21.1;66.2
67893;DHT22;54688;52.376;16.744;2023-07-29T08:43:43;21.2;66.7
67893;DHT22;54688;52.376;16.744;2023-07-29T08:46:52;21.4;65.2
67893;DHT22;54688;52.376;16.744;2023-07-29T08:49:54;21.5;65.4
67893;DHT22;54688;52.376;16.744;2023-07-29T08:52:57;21.7;63.6
67893;DHT22;54688;52.376;16.744;2023-07-29T08:55:59;21.7;64.5
67893;DHT22;54688;52.376;16.744;2023-07-29T08:59:02;22;62.9
67893;DHT22;54688;52.376;16.744;2023-07-29T09:02:04;22;61.5
67893;DHT22;54688;52.376;16.744;2023-07-29T09:05:06;22;61
67893;DHT22;54688;52.376;16.744;2023-07-29T09:08:09;22.1;62
67893;DHT22;54688;52.376;16.744;2023-07-29T09:11:12;22.1;61.6
67893;DHT22;54688;52.376;16.744;2023-07-29T09:14:15;22.2;61.4
67893;DHT22;54688;52.376;16.744;2023-07-29T09:17:18;22.3;61.5
67893;DHT22;54688;52.376;16.744;2023-07-29T09:20:23;22.4;61.9
67893;DHT22;54688;52.376;16.744;2023-07-29T09:23:26;22.5;60.5
67893;DHT22;54688;52.376;16.744;2023-07-29T09:26:28;22.7;59.3
67893;DHT22;54688;52.376;16.744;2023-07-29T09:29:30;22.8;59.1
67893;DHT22;54688;52.376;16.744;2023-07-29T09:32:33;23;58.1
67893;DHT22;54688;52.376;16.744;2023-07-29T09:35:35;23.1;59
67893;DHT22;54688;52.376;16.744;2023-07-29T09:38:38;23.3;58.1
67893;DHT22;54688;52.376;16.744;2023-07-29T09:41:40;23.4;58.2
67893;DHT22;54688;52.376;16.744;2023-07-29T09:44:43;23.6;56.1
67893;DHT22;54688;52.376;16.744;2023-07-29T09:47:46;23.7;56.6
67893;DHT22;54688;52.376;16.744;2023-07-29T09:50:48;23.9;55.9
67893;DHT22;54688;52.376;16.744;2023-07-29T09:53:50;24;55.1
67893;DHT22;54688;52.376;16.744;2023-07-29T09:56:53;24;54.5
67893;DHT22;54688;52.376;16.744;2023-07-29T09:59:55;24.1;55.1
67893;DHT22;54688;52.376;16.744;2023-07-29T10:02:58;24.1;54.5
67893;DHT22;54688;52.376;16.744;2023-07-29T10:06:00;24.1;53.7
67893;DHT22;54688;52.376;16.744;2023-07-29T10:09:03;24.2;55
67893;DHT22;54688;52.376;16.744;2023-07-29T10:12:07;24.2;54.3
67893;DHT22;54688;52.376;16.744;2023-07-29T10:15:09;24.3;54.1
67893;DHT22;54688;52.376;16.744;2023-07-29T10:18:11;24.4;54.5
67893;DHT22;54688;52.376;16.744;2023-07-29T10:21:13;24.6;52.7
67893;DHT22;54688;52.376;16.744;2023-07-29T10:24:18;24.6;54.5
67893;DHT22;54688;52.376;16.744;2023-07-29T10:27:23;24.7;53.3
67893;DHT22;54688;52.376;16.744;2023-07-29T10:30:27;24.8;53.5
67893;DHT22;54688;52.376;16.744;2023-07-29T10:33:30;24.8;52.6
67893;DHT22;54688;52.376;16.744;2023-07-29T10:36:35;24.9;52.3
67893;DHT22;54688;52.376;16.744;2023-07-29T10:39:37;25;51.9
67893;DHT22;54688;52.376;16.744;2023-07-29T10:42:58;25;51.7
67893;DHT22;54688;52.376;16.744;2023-07-29T10:46:14;25;51.6
67893;DHT22;54688;52.376;16.744;2023-07-29T10:49:16;25;51.5
67893;DHT22;54688;52.376;16.744;2023-07-29T10:52:28;25.1;53.2
67893;DHT22;54688;52.376;16.744;2023-07-29T10:55:32;25.3;53
67893;DHT22;54688;52.376;16.744;2023-07-29T10:58:36;25.4;52.5
67893;DHT22;54688;52.376;16.744;2023-07-29T11:04:45;25.6;51.2
67893;DHT22;54688;52.376;16.744;2023-07-29T11:07:48;25.6;51
67893;DHT22;54688;52.376;16.744;2023-07-29T11:11:01;25.8;50.7
67893;DHT22;54688;52.376;16.744;2023-07-29T11:14:05;25.7;50.5
67893;DHT22;54688;52.376;16.744;2023-07-29T11:17:06;25.7;50
67893;DHT22;54688;52.376;16.744;2023-07-29T11:20:09;25.7;48.2
67893;DHT22;54688;52.376;16.744;2023-07-29T11:23:12;25.9;49.1
67893;DHT22;54688;52.376;16.744;2023-07-29T11:26:14;26;48.5
67893;DHT22;54688;52.376;16.744;2023-07-29T11:29:16;26.2;47.7
67893;DHT22;54688;52.376;16.744;2023-07-29T11:32:18;26.2;49.4
67893;DHT22;54688;52.376;16.744;2023-07-29T11:35:20;26.2;50.1
67893;DHT22;54688;52.376;16.744;2023-07-29T11:38:22;26.2;50.5
67893;DHT22;54688;52.376;16.744;2023-07-29T11:41:24;26.5;48.1
67893;DHT22;54688;52.376;16.744;2023-07-29T11:44:26;26.6;48.3
67893;DHT22;54688;52.376;16.744;2023-07-29T11:47:28;26.8;47.7
67893;DHT22;54688;52.376;16.744;2023-07-29T11:50:29;26.9;47.8
67893;DHT22;54688;52.376;16.744;2023-07-29T11:53:40;26.9;48.7
67893;DHT22;54688;52.376;16.744;2023-07-29T11:56:43;26.9;48.6
67893;DHT22;54688;52.376;16.744;2023-07-29T11:59:45;27.1;48
67893;DHT22;54688;52.376;16.744;2023-07-29T12:02:48;27.1;46.9
67893;DHT22;54688;52.376;16.744;2023-07-29T12:05:51;27.1;48.2
67893;DHT22;54688;52.376;16.744;2023-07-29T12:08:53;27.2;47.7
67893;DHT22;54688;52.376;16.744;2023-07-29T12:11:55;27.2;48.1
67893;DHT22;54688;52.376;16.744;2023-07-29T12:14:57;27.3;48.5
67893;DHT22;54688;52.376;16.744;2023-07-29T12:18:00;27.5;47.3
67893;DHT22;54688;52.376;16.744;2023-07-29T12:21:02;27.7;46.8
67893;DHT22;54688;52.376;16.744;2023-07-29T12:24:05;27.9;47.2
67893;DHT22;54688;52.376;16.744;2023-07-29T12:27:10;28.1;45.4
67893;DHT22;54688;52.376;16.744;2023-07-29T12:30:13;28.1;45.9
67893;DHT22;54688;52.376;16.744;2023-07-29T12:33:28;28.3;44.8
67893;DHT22;54688;52.376;16.744;2023-07-29T12:36:39;28.3;44.5
67893;DHT22;54688;52.376;16.744;2023-07-29T12:39:44;28.2;44.9
67893;DHT22;54688;52.376;16.744;2023-07-29T12:42:46;28.1;45.8
67893;DHT22;54688;52.376;16.744;2023-07-29T12:45:48;28.1;46.2
67893;DHT22;54688;52.376;16.744;2023-07-29T12:48:50;28;45.5
67893;DHT22;54688;52.376;16.744;2023-07-29T12:51:53;27.9;44.9
67893;DHT22;54688;52.376;16.744;2023-07-29T12:54:55;27.9;44.6
67893;DHT22;54688;52.376;16.744;2023-07-29T12:57:57;27.8;44.1
67893;DHT22;54688;52.376;16.744;2023-07-29T13:01:00;27.8;44.1
67893;DHT22;54688;52.376;16.744;2023-07-29T13:04:02;27.7;44.5
67893;DHT22;54688;52.376;16.744;2023-07-29T13:07:05;27.6;44.5
67893;DHT22;54688;52.376;16.744;2023-07-29T13:10:07;27.5;45.3
67893;DHT22;54688;52.376;16.744;2023-07-29T13:13:10;27.5;45.5
67893;DHT22;54688;52.376;16.744;2023-07-29T13:16:12;27.6;45.6
67893;DHT22;54688;52.376;16.744;2023-07-29T13:19:15;27.6;45
67893;DHT22;54688;52.376;16.744;2023-07-29T13:22:17;27.4;44.7
67893;DHT22;54688;52.376;16.744;2023-07-29T13:25:19;27.3;45.3
67893;DHT22;54688;52.376;16.744;2023-07-29T13:28:22;27.2;44.2
67893;DHT22;54688;52.376;16.744;2023-07-29T13:31:24;27.2;45.7
67893;DHT22;54688;52.376;16.744;2023-07-29T13:34:26;27.2;45.5
67893;DHT22;54688;52.376;16.744;2023-07-29T13:37:28;27.3;45.8
67893;DHT22;54688;52.376;16.744;2023-07-29T13:40:31;27.3;45.1
67893;DHT22;54688;52.376;16.744;2023-07-29T13:43:32;27.1;44.9
67893;DHT22;54688;52.376;16.744;2023-07-29T13:46:34;27;45.5
67893;DHT22;54688;52.376;16.744;2023-07-29T13:49:35;26.8;47
67893;DHT22;54688;52.376;16.744;2023-07-29T13:52:37;26.5;56.1
67893;DHT22;54688;52.376;16.744;2023-07-29T13:55:40;24.7;54.7
67893;DHT22;54688;52.376;16.744;2023-07-29T13:58:42;23;61.6
67893;DHT22;54688;52.376;16.744;2023-07-29T14:01:43;21.9;67.6
67893;DHT22;54688;52.376;16.744;2023-07-29T14:07:44;21.4;83.2
67893;DHT22;54688;52.376;16.744;2023-07-29T14:10:46;21.7;85.2
67893;DHT22;54688;52.376;16.744;2023-07-29T14:13:48;22.1;84.2
67893;DHT22;54688;52.376;16.744;2023-07-29T14:16:51;22.6;79.8
67893;DHT22;54688;52.376;16.744;2023-07-29T14:19:53;22.9;75.2
67893;DHT22;54688;52.376;16.744;2023-07-29T14:22:55;23.2;74.5
67893;DHT22;54688;52.376;16.744;2023-07-29T14:25:57;23.5;73.5
67893;DHT22;54688;52.376;16.744;2023-07-29T14:28:59;23.9;72.3
67893;DHT22;54688;52.376;16.744;2023-07-29T14:32:02;24.2;73.4
67893;DHT22;54688;52.376;16.744;2023-07-29T14:35:04;24.5;72.6
67893;DHT22;54688;52.376;16.744;2023-07-29T14:38:14;25.1;72.1
67893;DHT22;54688;52.376;16.744;2023-07-29T14:41:16;25.1;71.9
67893;DHT22;54688;52.376;16.744;2023-07-29T14:44:19;25.5;68.3
67893;DHT22;54688;52.376;16.744;2023-07-29T14:47:21;25.8;66.4
67893;DHT22;54688;52.376;16.744;2023-07-29T14:50:23;26.2;63.2
67893;DHT22;54688;52.376;16.744;2023-07-29T14:53:25;26.6;63.9
67893;DHT22;54688;52.376;16.744;2023-07-29T14:56:28;27;63.3
67893;DHT22;54688;52.376;16.744;2023-07-29T14:59:29;27.3;62.4
67893;DHT22;54688;52.376;16.744;2023-07-29T15:02:31;27.8;61.4
67893;DHT22;54688;52.376;16.744;2023-07-29T15:05:33;28.2;59.3
67893;DHT22;54688;52.376;16.744;2023-07-29T15:08:35;28.3;56.4
67893;DHT22;54688;52.376;16.744;2023-07-29T15:11:37;28.2;57.1
67893;DHT22;54688;52.376;16.744;2023-07-29T15:14:38;27.9;56.9
67893;DHT22;54688;52.376;16.744;2023-07-29T15:17:41;27.6;58.1
67893;DHT22;54688;52.376;16.744;2023-07-29T15:20:43;27.3;58.8
67893;DHT22;54688;52.376;16.744;2023-07-29T15:23:46;27;58.5
67893;DHT22;54688;52.376;16.744;2023-07-29T15:26:48;26.6;59.3
67893;DHT22;54688;52.376;16.744;2023-07-29T15:29:50;26.2;60.3
67893;DHT22;54688;52.376;16.744;2023-07-29T15:32:54;25.9;62.4
67893;DHT22;54688;52.376;16.744;2023-07-29T15:35:56;25.4;63.5
67893;DHT22;54688;52.376;16.744;2023-07-29T15:38:58;24.8;69.9
67893;DHT22;54688;52.376;16.744;2023-07-29T15:42:00;23.6;69.1
67893;DHT22;54688;52.376;16.744;2023-07-29T15:45:02;22.4;71.6
67893;DHT22;54688;52.376;16.744;2023-07-29T15:48:05;21.5;75
67893;DHT22;54688;52.376;16.744;2023-07-29T15:54:06;20.1;78.5
67893;DHT22;54688;52.376;16.744;2023-07-29T15:57:08;19.6;79.5
67893;DHT22;54688;52.376;16.744;2023-07-29T16:00:12;19.1;80.2
67893;DHT22;54688;52.376;16.744;2023-07-29T16:03:15;18.6;79.9
67893;DHT22;54688;52.376;16.744;2023-07-29T16:06:17;18;79.4
67893;DHT22;54688;52.376;16.744;2023-07-29T16:09:20;17.6;81.8
67893;DHT22;54688;52.376;16.744;2023-07-29T16:12:22;17.4;84.6
67893;DHT22;54688;52.376;16.744;2023-07-29T16:15:25;17.4;87.2
67893;DHT22;54688;52.376;16.744;2023-07-29T16:18:27;17.6;88
67893;DHT22;54688;52.376;16.744;2023-07-29T16:21:29;17.8;88.3
67893;DHT22;54688;52.376;16.744;2023-07-29T16:24:30;18;88.6
67893;DHT22;54688;52.376;16.744;2023-07-29T16:27:32;18.1;87.8
67893;DHT22;54688;52.376;16.744;2023-07-29T16:30:34;18.2;86.6
67893;DHT22;54688;52.376;16.744;2023-07-29T16:33:36;18.1;83.2
67893;DHT22;54688;52.376;16.744;2023-07-29T16:36:37;17.9;82.5
67893;DHT22;54688;52.376;16.744;2023-07-29T16:39:39;17.7;83.2
67893;DHT22;54688;52.376;16.744;2023-07-29T16:42:41;17.6;83.5
67893;DHT22;54688;52.376;16.744;2023-07-29T16:45:42;17.4;84.1
67893;DHT22;54688;52.376;16.744;2023-07-29T16:48:44;17.1;84.3
67893;DHT22;54688;52.376;16.744;2023-07-29T16:51:47;16.9;85.4
67893;DHT22;54688;52.376;16.744;2023-07-29T16:54:50;16.8;85.9
67893;DHT22;54688;52.376;16.744;2023-07-29T16:57:52;16.7;87.5
67893;DHT22;54688;52.376;16.744;2023-07-29T17:00:54;16.7;87.8
67893;DHT22;54688;52.376;16.744;2023-07-29T17:03:56;16.7;88.6
67893;DHT22;54688;52.376;16.744;2023-07-29T17:06:57;16.7;89.1
67893;DHT22;54688;52.376;16.744;2023-07-29T17:10:00;16.8;88.7
67893;DHT22;54688;52.376;16.744;2023-07-29T17:13:02;16.8;88.2
67893;DHT22;54688;52.376;16.744;2023-07-29T17:16:04;16.8;88.1
67893;DHT22;54688;52.376;16.744;2023-07-29T17:19:06;16.8;87.6
67893;DHT22;54688;52.376;16.744;2023-07-29T17:22:08;16.9;87.4
67893;DHT22;54688;52.376;16.744;2023-07-29T17:25:10;16.9;87.2
67893;DHT22;54688;52.376;16.744;2023-07-29T17:28:11;17;87.3
67893;DHT22;54688;52.376;16.744;2023-07-29T17:31:13;17;87.2
67893;DHT22;54688;52.376;16.744;2023-07-29T17:34:16;17;87.2
67893;DHT22;54688;52.376;16.744;2023-07-29T17:37:17;17;87.3
67893;DHT22;54688;52.376;16.744;2023-07-29T17:43:19;17.1;87.2
67893;DHT22;54688;52.376;16.744;2023-07-29T17:46:20;17.2;87.1
67893;DHT22;54688;52.376;16.744;2023-07-29T17:49:23;17.2;86.4
67893;DHT22;54688;52.376;16.744;2023-07-29T17:52:24;17.2;86.6
67893;DHT22;54688;52.376;16.744;2023-07-29T17:55:26;17.2;87
67893;DHT22;54688;52.376;16.744;2023-07-29T17:58:28;17.2;87.2
67893;DHT22;54688;52.376;16.744;2023-07-29T18:01:30;17.3;87.1
67893;DHT22;54688;52.376;16.744;2023-07-29T18:04:32;17.3;87.1
67893;DHT22;54688;52.376;16.744;2023-07-29T18:07:34;17.3;87.2
67893;DHT22;54688;52.376;16.744;2023-07-29T18:10:38;17.3;87.1
67893;DHT22;54688;52.376;16.744;2023-07-29T18:13:40;17.3;87.2
67893;DHT22;54688;52.376;16.744;2023-07-29T18:16:42;17.3;87.3
67893;DHT22;54688;52.376;16.744;2023-07-29T18:19:43;17.4;87.6
67893;DHT22;54688;52.376;16.744;2023-07-29T18:22:45;17.4;87.6
67893;DHT22;54688;52.376;16.744;2023-07-29T18:25:46;17.4;87.3
67893;DHT22;54688;52.376;16.744;2023-07-29T18:28:48;17.4;87.1
67893;DHT22;54688;52.376;16.744;2023-07-29T18:31:50;17.4;86.2
67893;DHT22;54688;52.376;16.744;2023-07-29T18:34:51;17.4;87.1
67893;DHT22;54688;52.376;16.744;2023-07-29T18:37:53;17.4;86.9
67893;DHT22;54688;52.376;16.744;2023-07-29T18:40:55;17.4;86.8
67893;DHT22;54688;52.376;16.744;2023-07-29T18:43:56;17.3;86.7
67893;DHT22;54688;52.376;16.744;2023-07-29T18:46:59;17.2;85.9
67893;DHT22;54688;52.376;16.744;2023-07-29T18:50:00;17.2;86.8
67893;DHT22;54688;52.376;16.744;2023-07-29T18:53:02;17.2;87.1
67893;DHT22;54688;52.376;16.744;2023-07-29T18:56:04;17.2;87.3
67893;DHT22;54688;52.376;16.744;2023-07-29T18:59:06;17.2;87.2
67893;DHT22;54688;52.376;16.744;2023-07-29T19:02:09;17.1;87.3
67893;DHT22;54688;52.376;16.744;2023-07-29T19:05:12;17.1;87.1
67893;DHT22;54688;52.376;16.744;2023-07-29T19:08:14;17.1;87.3
67893;DHT22;54688;52.376;16.744;2023-07-29T19:11:15;17.1;87.6
67893;DHT22;54688;52.376;16.744;2023-07-29T19:14:17;17;87.3
67893;DHT22;54688;52.376;16.744;2023-07-29T19:17:19;17;87.2
67893;DHT22;54688;52.376;16.744;2023-07-29T19:20:21;17;87.1
67893;DHT22;54688;52.376;16.744;2023-07-29T19:23:23;16.9;87
67893;DHT22;54688;52.376;16.744;2023-07-29T19:26:26;16.9;87.1
67893;DHT22;54688;52.376;16.744;2023-07-29T19:29:27;16.8;87.6
67893;DHT22;54688;52.376;16.744;2023-07-29T19:32:30;16.7;87.1
67893;DHT22;54688;52.376;16.744;2023-07-29T19:35:31;16.7;86.5
67893;DHT22;54688;52.376;16.744;2023-07-29T19:38:33;16.6;88.3
67893;DHT22;54688;52.376;16.744;2023-07-29T19:41:35;16.6;87.5
67893;DHT22;54688;52.376;16.744;2023-07-29T19:44:36;16.6;87.5
67893;DHT22;54688;52.376;16.744;2023-07-29T19:47:38;16.5;87.5
67893;DHT22;54688;52.376;16.744;2023-07-29T19:50:40;16.5;87.5
67893;DHT22;54688;52.376;16.744;2023-07-29T19:53:42;16.4;87.4
67893;DHT22;54688;52.376;16.744;2023-07-29T19:56:44;16.4;87.5
67893;DHT22;54688;52.376;16.744;2023-07-29T19:59:46;16.4;86.5
67893;DHT22;54688;52.376;16.744;2023-07-29T20:02:48;16.4;87.5
67893;DHT22;54688;52.376;16.744;2023-07-29T20:05:50;16.3;86.6
67893;DHT22;54688;52.376;16.744;2023-07-29T20:08:52;16.3;87.4
67893;DHT22;54688;52.376;16.744;2023-07-29T20:11:54;16.3;87.7
67893;DHT22;54688;52.376;16.744;2023-07-29T20:14:55;16.3;88.3
67893;DHT22;54688;52.376;16.744;2023-07-29T20:17:57;16.3;87.8
67893;DHT22;54688;52.376;16.744;2023-07-29T20:20:59;16.2;87.8
67893;DHT22;54688;52.376;16.744;2023-07-29T20:24:01;16.2;86.9
67893;DHT22;54688;52.376;16.744;2023-07-29T20:27:03;16.2;87.8
67893;DHT22;54688;52.376;16.744;2023-07-29T20:30:06;16.2;88.5
67893;DHT22;54688;52.376;16.744;2023-07-29T20:33:09;16.2;87
67893;DHT22;54688;52.376;16.744;2023-07-29T20:36:10;16.2;88
67893;DHT22;54688;52.376;16.744;2023-07-29T20:39:13;16.2;88
67893;DHT22;54688;52.376;16.744;2023-07-29T20:42:15;16.2;88
67893;DHT22;54688;52.376;16.744;2023-07-29T20:45:16;16.2;88.1
67893;DHT22;54688;52.376;16.744;2023-07-29T20:48:19;16.2;88.1
67893;DHT22;54688;52.376;16.744;2023-07-29T20:54:18;16.2;88
67893;DHT22;54688;52.376;16.744;2023-07-29T20:57:20;16.2;87.8
67893;DHT22;54688;52.376;16.744;2023-07-29T21:00:22;16.2;87.8
67893;DHT22;54688;52.376;16.744;2023-07-29T21:03:24;16.2;87.9
67893;DHT22;54688;52.376;16.744;2023-07-29T21:06:26;16.2;87.8
67893;DHT22;54688;52.376;16.744;2023-07-29T21:09:28;16.2;87.9
67893;DHT22;54688;52.376;16.744;2023-07-29T21:12:31;16.2;87.9
67893;DHT22;54688;52.376;16.744;2023-07-29T21:15:33;16.1;88
67893;DHT22;54688;52.376;16.744;2023-07-29T21:18:35;16.1;88
67893;DHT22;54688;52.376;16.744;2023-07-29T21:21:37;16.1;88.2
67893;DHT22;54688;52.376;16.744;2023-07-29T21:24:39;16.1;88.2